Friday, October 19, 2018, 3:51 AM EDT
Back to Local

KMFV, Melfa / Accomack Airport

Location: Melfa, VA, United States Lat: 37.65
Local Time: 3:51 AM EDT ( 7:51 GMT) Lon: -75.767
Time Zone: US/Eastern Elev: 49 ft

Show me the last for .
Show Coded

Time T Td Feel RH Dir Speed Gust Alt SLP Vis Weather Sky Remarks
2018-10-19 03:35 39 38 - 96 - Calm - 30.38 - 10 CLR None
2018-10-19 03:15 39 38 - 96 - Calm - 30.38 - 10 CLR None
2018-10-19 02:55 39 38 - 96 - Calm - 30.38 - 10 CLR None
2018-10-19 02:35 40 39 - 96 - Calm - 30.39 - 10 CLR None
2018-10-19 02:15 39 38 37 95 140° 3 - 30.39 - 10 CLR None
2018-10-19 01:55 39 38 - 95 - Calm - 30.39 - 10 CLR 6-hr Min Temp (2am): 39.0°F
6-hr Max Temp (2am): 43.9°F
2018-10-19 01:35 39 38 37 95 140° 3 - 30.39 - 10 CLR None
2018-10-19 01:15 40 38 - 95 - Calm - 30.39 - 10 CLR None
2018-10-19 00:55 40 38 - 95 - Calm - 30.39 - 10 CLR 24-hr Min Temp (1am): 39.0°F
24-hr Max Temp (1am): 60.3°F
2018-10-19 00:35 39 38 - 96 - Calm - 30.39 - 10 CLR None
2018-10-19 00:15 40 39 - 95 - Calm - 30.39 - 10 CLR None
2018-10-18 23:55 40 38 36 95 140° 5 - 30.40 - 10 CLR None
2018-10-18 23:35 40 39 - 95 - Calm - 30.40 - 10 CLR None
2018-10-18 23:15 41 40 - 95 - Calm - 30.41 - 10 CLR None
2018-10-18 22:55 42 40 - 93 - Calm - 30.42 - 10 CLR None
2018-10-18 22:35 41 40 39 95 170° 3 - 30.42 - 10 CLR None
2018-10-18 22:15 42 40 - 93 - Calm - 30.42 - 10 CLR None
2018-10-18 21:55 42 40 - 93 - Calm - 30.41 - 10 CLR None
2018-10-18 21:35 42 40 - 93 - Calm - 30.42 - 10 CLR None
2018-10-18 21:15 42 40 - 92 - Calm - 30.41 - 10 CLR None
2018-10-18 20:55 42 41 - 93 - Calm - 30.41 - 10 CLR None
2018-10-18 20:35 43 41 - 92 - Calm - 30.41 - 10 CLR None
2018-10-18 20:15 44 41 - 90 - Calm - 30.40 - 10 CLR None
2018-10-18 19:55 43 40 41 90 150° 3 - 30.40 - 10 CLR 6-hr Min Temp (8pm): 43.2°F
6-hr Max Temp (8pm): 57.2°F
2018-10-18 19:35 45 41 - 88 - Calm - 30.40 - 10 CLR None
2018-10-18 19:15 47 41 46 79 340° 3 - 30.39 - 10 CLR None
2018-10-18 18:55 46 41 - 81 - Calm - 30.39 - 10 CLR None
2018-10-18 18:35 50 40 49 68 340° 3 - 30.38 - 10 CLR None
2018-10-18 18:15 52 39 - 60 320° 5 - 30.38 - 10 CLR None
2018-10-18 17:55 54 37 - 53 340° 6 - 30.38 - 10 CLR None
2018-10-18 17:35 55 37 - 50 330° 3 - 30.38 - 10 CLR None
2018-10-18 17:15 55 37 - 49 320° 5 - 30.38 - 10 CLR None
2018-10-18 16:55 56 37 - 48 340° 6 - 30.38 - 10 CLR None
2018-10-18 16:35 56 36 - 47 340° 6 16 30.38 - 10 CLR None
2018-10-18 16:15 56 35 - 46 330° 9 16 30.38 - 10 CLR None
2018-10-18 15:55 56 35 - 45 340° 8 20 30.38 - 10 CLR None
2018-10-18 15:35 57 36 - 45 330° 12 16 30.38 - 10 CLR None
2018-10-18 15:15 57 36 - 44 330° 12 20 30.39 - 10 CLR None
2018-10-18 14:55 56 35 - 44 330° 9 17 30.39 - 10 CLR None
2018-10-18 14:35 56 34 - 43 350° 8 20 30.39 - 10 CLR None
2018-10-18 14:15 56 36 - 45 310° 13 20 30.39 - 10 CLR None
2018-10-18 13:55 56 35 - 45 340° 10 21 30.40 - 10 CLR 6-hr Min Temp (2pm): 49.5°F
6-hr Max Temp (2pm): 57.2°F
2018-10-18 13:35 56 35 - 45 360° 10 20 30.40 - 10 CLR None
2018-10-18 13:15 57 35 - 44 330° 12 21 30.41 - 10 CLR None
2018-10-18 12:55 57 35 - 43 310° 15 21 30.42 - 10 CLR None
2018-10-18 12:35 56 35 - 44 340° 10 21 30.43 - 10 CLR None
2018-10-18 12:15 56 35 - 44 310° 17 21 30.43 - 10 CLR None
2018-10-18 11:55 57 35 - 43 320° 12 21 30.42 - 10 CLR None
2018-10-18 11:35 56 34 - 42 320° 10 23 30.43 - 10 SCT048 None
2018-10-18 11:15 56 34 - 43 320° 12 18 30.43 - 10 SCT048 None
2018-10-18 10:55 56 35 - 45 10° 10 - 30.42 - 10 CLR None
2018-10-18 10:35 55 34 - 45 10° 6 16 30.42 - 10 CLR None
2018-10-18 10:15 55 34 - 45 360° 9 - 30.42 - 10 CLR None
2018-10-18 09:55 54 33 - 45 350° 7 17 30.42 - 10 CLR None
2018-10-18 09:35 53 33 - 45 10° 15 - 30.41 - 10 CLR None
2018-10-18 09:15 53 33 - 47 20° 12 22 30.40 - 10 CLR None
2018-10-18 08:55 52 33 - 49 20° 8 21 30.40 - 10 CLR None
2018-10-18 08:35 51 34 - 51 20° 10 20 30.39 - 10 CLR None
2018-10-18 08:15 50 34 44 54 30° 8 16 30.38 - 10 CLR None
2018-10-18 07:55 50 35 47 57 20° 7 - 30.37 - 10 CLR 6-hr Min Temp (8am): 49.5°F
6-hr Max Temp (8am): 59.0°F
2018-10-18 07:35 51 33 - 49 30° 12 18 30.36 - 10 CLR None
2018-10-18 07:15 51 33 - 51 360° 9 17 30.35 - 10 CLR None
2018-10-18 06:55 51 35 - 52 360° 12 18 30.34 - 10 CLR None
2018-10-18 06:35 52 34 - 50 350° 14 24 30.33 - 10 CLR None
2018-10-18 06:15 52 37 - 56 350° 9 - 30.32 - 10 CLR None
2018-10-18 05:55 51 40 - 65 10° 7 - 30.31 - 10 CLR None
2018-10-18 05:35 50 41 - 70 40° 3 - 30.30 - 10 CLR None
2018-10-18 05:15 50 41 - 69 40° 6 - 30.30 - 10 CLR None
2018-10-18 04:55 52 41 - 65 40° 8 - 30.30 - 10 CLR None
2018-10-18 04:35 54 41 - 62 10° 10 22 30.28 - 10 CLR None
2018-10-18 04:15 54 41 - 62 360° 10 18 30.28 - 10 CLR None
2018-10-18 03:55 55 41 - 59 360° 12 16 30.27 - 10 CLR None

Support USWX by starting your Amazon purchase here.